Atlantic Eagle — 3FOG8 — position and weather

sailwx.info

Track history (hours):
 
Tides and Currents Weather Stations Pressure Air Temp Water Temp Dewpoint Dewpoint Depression Visibility Wind Speed Wind Dir Waves Ship Positions

Atlantic Eagle

Last reported at 2018-Jun-12 05:44 UTC. Time now 2018-Jul-17 09:37 UTC.
Position N 01°23' E 104°29'.
Warning: this ship's position is 35 days out of date.

Length 170 m; draft 5.6 m.

Type: Cargo ship. MMSI: 357215000.

Date/timePositionNaut miles runAvg speedWind from/ knotsBaromVisibWave heightAir tempDewpointWater temp
2018-Jun-12 05:44N 01°23' E 104°29'313.6
2018-Jun-12 05:30N 01°23' E 104°26'714.4
2018-Jun-12 05:00N 01°18' E 104°21'713.7
2018-Jun-12 04:30N 01°16' E 104°14'714.3
2018-Jun-12 04:00N 01°15' E 104°07'713.6
2018-Jun-12 03:30N 01°14' E 104°00'510.3
2018-Jun-12 03:00N 01°16' E 103°55'2 3.3
2018-Jun-12 02:27N 01°17' E 103°54'0 0.0
2018-Jun-12 01:57N 01°17' E 103°54'0 0.0
2018-Jun-12 01:27N 01°17' E 103°54'0 0.0
2018-Jun-12 00:47N 01°17' E 103°54'0 0.0
2018-Jun-12 00:30N 01°17' E 103°54'0 0.0
2018-Jun-11 23:58N 01°17' E 103°54'0 0.0
2018-Jun-11 23:27N 01°17' E 103°54'0 0.0
2018-Jun-11 23:00N 01°17' E 103°54'0 0.1
2018-Jun-11 22:28N 01°17' E 103°54'0 0.1
2018-Jun-11 21:57N 01°17' E 103°54'0 0.0
2018-Jun-11 21:27N 01°17' E 103°54'0 0.0
2018-Jun-11 20:57N 01°17' E 103°54'0 0.0
2018-Jun-11 20:27N 01°17' E 103°54'0 0.1
2018-Jun-11 19:57N 01°17' E 103°54'0 0.1
2018-Jun-11 19:21N 01°17' E 103°54'0 0.2
2018-Jun-11 18:57N 01°17' E 103°54'0 0.0
2018-Jun-11 18:28N 01°17' E 103°54'0 0.0
2018-Jun-11 17:59N 01°17' E 103°54'2 4.5
2018-Jun-11 17:30N 01°16' E 103°56'3 5.9
2018-Jun-11 17:00N 01°15' E 103°59'4 8.2
2018-Jun-11 16:30N 01°13' E 103°55'5 9.4
2018-Jun-11 16:00N 01°11' E 103°51'4 8.5
2018-Jun-11 15:31N 01°09' E 103°47'611.4
2018-Jun-11 15:00N 01°05' E 103°43'510.6
2018-Jun-11 14:31N 01°03' E 103°38'612.6
2018-Jun-11 14:00N 01°06' E 103°33'611.6
2018-Jun-11 13:30N 01°09' E 103°28'611.3
2018-Jun-11 13:00N 01°13' E 103°23'712.1
2018-Jun-11 12:27N 01°17' E 103°18'512.1
2018-Jun-11 12:00N 01°20' E 103°14'  
2018-Jun-05 06:36N 01°20' E 103°19'311.7
2018-Jun-05 06:21N 01°18' E 103°21'411.9
2018-Jun-05 05:59N 01°15' E 103°24'612.1
2018-Jun-05 05:28N 01°13' E 103°30'612.5
2018-Jun-05 05:00N 01°12' E 103°36'611.9
2018-Jun-05 04:30N 01°10' E 103°42'510.0
2018-Jun-05 04:00N 01°10' E 103°46'611.7
2018-Jun-05 03:30N 01°12' E 103°52'611.6
2018-Jun-05 03:00N 01°15' E 103°57'611.5
2018-Jun-05 02:29N 01°16' E 104°03'611.9
2018-Jun-05 01:58N 01°17' E 104°09'611.3
2018-Jun-05 01:27N 01°18' E 104°15'510.8
2018-Jun-05 01:00N 01°19' E 104°20'510.2
2018-Jun-05 00:30N 01°22' E 104°23'710.5
2018-Jun-04 23:49N 01°27' E 104°29'910.7
2018-Jun-04 22:55N 01°34' E 104°35'  
Track history (hours):
 
Tides and Currents Weather Stations Pressure Air Temp Water Temp Dewpoint Dewpoint Depression Visibility Wind Speed Wind Dir Waves Ship Positions

Atlantic Eagle

Last reported at 2018-Jun-12 05:44 UTC. Time now 2018-Jul-17 09:37 UTC.
Position N 01°23' E 104°29'.
Warning: this ship's position is 35 days out of date.

Length 170 m; draft 5.6 m.

Type: Cargo ship. MMSI: 357215000.

Date/timePositionNaut miles runAvg speedWind from/ knotsBaromVisibWave heightAir tempDewpointWater temp
2018-Jun-12 05:44N 01°23' E 104°29'313.6
2018-Jun-12 05:30N 01°23' E 104°26'714.4
2018-Jun-12 05:00N 01°18' E 104°21'713.7
2018-Jun-12 04:30N 01°16' E 104°14'714.3
2018-Jun-12 04:00N 01°15' E 104°07'713.6
2018-Jun-12 03:30N 01°14' E 104°00'510.3
2018-Jun-12 03:00N 01°16' E 103°55'2 3.3
2018-Jun-12 02:27N 01°17' E 103°54'0 0.0
2018-Jun-12 01:57N 01°17' E 103°54'0 0.0
2018-Jun-12 01:27N 01°17' E 103°54'0 0.0
2018-Jun-12 00:47N 01°17' E 103°54'0 0.0
2018-Jun-12 00:30N 01°17' E 103°54'0 0.0
2018-Jun-11 23:58N 01°17' E 103°54'0 0.0
2018-Jun-11 23:27N 01°17' E 103°54'0 0.0
2018-Jun-11 23:00N 01°17' E 103°54'0 0.1
2018-Jun-11 22:28N 01°17' E 103°54'0 0.1
2018-Jun-11 21:57N 01°17' E 103°54'0 0.0
2018-Jun-11 21:27N 01°17' E 103°54'0 0.0
2018-Jun-11 20:57N 01°17' E 103°54'0 0.0
2018-Jun-11 20:27N 01°17' E 103°54'0 0.1
2018-Jun-11 19:57N 01°17' E 103°54'0 0.1
2018-Jun-11 19:21N 01°17' E 103°54'0 0.2
2018-Jun-11 18:57N 01°17' E 103°54'0 0.0
2018-Jun-11 18:28N 01°17' E 103°54'0 0.0
2018-Jun-11 17:59N 01°17' E 103°54'2 4.5
2018-Jun-11 17:30N 01°16' E 103°56'3 5.9
2018-Jun-11 17:00N 01°15' E 103°59'4 8.2
2018-Jun-11 16:30N 01°13' E 103°55'5 9.4
2018-Jun-11 16:00N 01°11' E 103°51'4 8.5
2018-Jun-11 15:31N 01°09' E 103°47'611.4
2018-Jun-11 15:00N 01°05' E 103°43'510.6
2018-Jun-11 14:31N 01°03' E 103°38'612.6
2018-Jun-11 14:00N 01°06' E 103°33'611.6
2018-Jun-11 13:30N 01°09' E 103°28'611.3
2018-Jun-11 13:00N 01°13' E 103°23'712.1
2018-Jun-11 12:27N 01°17' E 103°18'512.1
2018-Jun-11 12:00N 01°20' E 103°14'  
2018-Jun-05 06:36N 01°20' E 103°19'311.7
2018-Jun-05 06:21N 01°18' E 103°21'411.9
2018-Jun-05 05:59N 01°15' E 103°24'612.1
2018-Jun-05 05:28N 01°13' E 103°30'612.5
2018-Jun-05 05:00N 01°12' E 103°36'611.9
2018-Jun-05 04:30N 01°10' E 103°42'510.0
2018-Jun-05 04:00N 01°10' E 103°46'611.7
2018-Jun-05 03:30N 01°12' E 103°52'611.6
2018-Jun-05 03:00N 01°15' E 103°57'611.5
2018-Jun-05 02:29N 01°16' E 104°03'611.9
2018-Jun-05 01:58N 01°17' E 104°09'611.3
2018-Jun-05 01:27N 01°18' E 104°15'510.8
2018-Jun-05 01:00N 01°19' E 104°20'510.2
2018-Jun-05 00:30N 01°22' E 104°23'710.5
2018-Jun-04 23:49N 01°27' E 104°29'910.7
2018-Jun-04 22:55N 01°34' E 104°35'  

Dump ship's entire track history